Time;durP1;ratioP1;P1;durP2;ratioP2;P2;SDS_P1;SDS_P2;PMS_P1;PMS_P2;Temp;Humidity;BMP_temperature;BMP_pressure;BME280_temperature;BME280_humidity;BME280_pressure;Samples;Min_cycle;Max_cycle;Signal;HPM_P1;HPM_P2
2022/07/20 00:00:58;;;;;;;13.65;5.45;;;;;;;27.12;30.77;98497.84;5013778;28;20192;-47
2022/07/20 00:03:25;;;;;;;9.80;4.97;;;;;;;27.02;30.85;98489.78;5013251;28;20220;-47
2022/07/20 00:05:52;;;;;;;15.75;5.40;;;;;;;26.96;30.72;98484.41;5013564;28;20552;-48
2022/07/20 00:11:21;;;;;;;14.02;5.07;;;;;;;26.89;31.41;98488.41;5013636;28;20214;-48
2022/07/20 00:13:48;;;;;;;9.65;5.20;;;;;;;26.96;30.88;98488.97;5013187;28;20404;-48
2022/07/20 00:16:17;;;;;;;10.57;5.30;;;;;;;27.02;30.34;98489.78;4995558;28;20246;-48
2022/07/20 00:18:44;;;;;;;9.95;4.88;;;;;;;27.03;30.69;98491.41;4995696;28;20196;-48
2022/07/20 00:21:11;;;;;;;6.97;4.95;;;;;;;26.91;31.07;98487.06;5013526;28;20189;-49
2022/07/20 00:23:37;;;;;;;10.30;5.15;;;;;;;26.90;31.00;98487.34;5012530;28;20224;-47
2022/07/20 00:26:04;;;;;;;9.60;5.07;;;;;;;26.95;30.94;98490.03;5013277;28;20184;-48
2022/07/20 00:28:31;;;;;;;10.15;4.72;;;;;;;26.86;31.57;98495.06;5013378;28;20201;-48
2022/07/20 00:30:59;;;;;;;7.70;4.80;;;;;;;26.75;31.34;98488.84;5013278;28;20189;-48
2022/07/20 00:33:28;;;;;;;9.73;4.85;;;;;;;26.67;31.89;98489.34;5013173;28;20215;-48
2022/07/20 00:35:55;;;;;;;7.60;5.00;;;;;;;26.61;31.73;98487.72;5013221;28;20238;-48
2022/07/20 00:38:22;;;;;;;11.98;4.78;;;;;;;26.66;31.57;98487.72;5013252;28;20515;-48
2022/07/20 00:40:50;;;;;;;11.75;4.93;;;;;;;26.60;31.47;98486.09;5013074;28;20204;-48
2022/07/20 00:43:17;;;;;;;9.07;4.60;;;;;;;26.65;31.38;98488.81;4995127;28;20294;-48
2022/07/20 00:45:46;;;;;;;7.18;4.80;;;;;;;26.58;31.44;98482.88;5001032;28;20203;-48
2022/07/20 00:48:12;;;;;;;8.02;4.30;;;;;;;26.56;32.36;98485.78;5019550;28;20196;-48
2022/07/20 00:50:41;;;;;;;9.82;4.38;;;;;;;26.55;31.85;98486.06;5019640;28;20187;-48
2022/07/20 00:53:09;;;;;;;8.18;4.57;;;;;;;26.51;32.32;98485.75;5019449;28;20215;-48
2022/07/20 00:55:37;;;;;;;8.10;4.57;;;;;;;26.42;32.40;98484.66;5019736;28;20184;-50
2022/07/20 00:58:03;;;;;;;8.75;4.80;;;;;;;26.36;32.59;98487.31;5002053;28;20197;-48
2022/07/20 01:00:30;;;;;;;9.30;4.80;;;;;;;26.15;33.72;98493.59;5019510;28;20181;-47
2022/07/20 01:02:57;;;;;;;6.53;4.43;;;;;;;25.93;33.76;98492.59;5019279;28;20227;-49
2022/07/20 01:05:24;;;;;;;7.40;4.63;;;;;;;25.71;34.47;98481.97;5019461;28;20198;-48
2022/07/20 01:07:53;;;;;;;7.93;4.40;;;;;;;25.52;34.90;98491.41;5001456;28;20207;-49
2022/07/20 01:10:20;;;;;;;7.90;4.60;;;;;;;25.33;35.13;98486.41;5000542;28;20561;-49
2022/07/20 01:12:48;;;;;;;6.57;4.63;;;;;;;25.20;35.43;98483.06;5013919;28;20210;-49
2022/07/20 01:15:15;;;;;;;5.35;4.50;;;;;;;25.05;35.73;98488.22;5017294;28;20191;-49
2022/07/20 01:17:42;;;;;;;9.68;4.82;;;;;;;24.91;36.96;98485.94;5011934;28;20182;-49
2022/07/20 01:20:14;;;;;;;9.93;4.78;;;;;;;24.75;37.06;98481.47;5017859;28;20199;-49
2022/07/20 01:22:43;;;;;;;10.07;4.68;;;;;;;24.60;37.11;98479.38;5015146;28;20226;-49
2022/07/20 01:25:10;;;;;;;6.28;4.65;;;;;;;24.52;37.28;98480.59;5015162;28;20198;-49
2022/07/20 01:27:37;;;;;;;8.27;4.97;;;;;;;24.40;38.15;98480.69;5015101;28;20182;-49
2022/07/20 01:30:04;;;;;;;7.43;4.35;;;;;;;24.30;38.14;98492.03;5000274;28;20666;-48
2022/07/20 01:32:32;;;;;;;8.13;4.32;;;;;;;24.20;38.55;98491.88;5001841;28;20682;-49
2022/07/20 01:34:58;;;;;;;8.90;4.50;;;;;;;24.12;39.50;98489.63;5002942;28;20650;-49
2022/07/20 01:37:25;;;;;;;7.07;4.68;;;;;;;23.99;39.13;98491.56;5001371;28;20194;-49
2022/07/20 01:39:53;;;;;;;6.65;4.20;;;;;;;23.87;39.22;98499.59;5003316;28;20229;-49
2022/07/20 01:42:20;;;;;;;6.95;4.93;;;;;;;23.80;39.17;98495.47;5005655;28;20286;-49
2022/07/20 01:44:47;;;;;;;6.72;4.55;;;;;;;23.78;40.48;98497.56;4999905;28;20212;-48
2022/07/20 01:47:14;;;;;;;9.33;5.33;;;;;;;23.67;39.89;98500.06;4984219;28;20207;-49
2022/07/20 01:49:41;;;;;;;6.13;5.05;;;;;;;23.61;39.84;98497.56;5006532;28;20671;-49
2022/07/20 01:52:08;;;;;;;8.18;4.80;;;;;;;23.54;40.13;98503.84;4998861;28;20708;-49
2022/07/20 01:54:35;;;;;;;6.93;4.27;;;;;;;23.50;40.89;98502.69;5002138;28;20202;-49
2022/07/20 01:57:04;;;;;;;6.83;4.97;;;;;;;23.43;40.99;98500.16;5001261;28;20200;-49
2022/07/20 01:59:31;;;;;;;9.32;5.00;;;;;;;23.37;41.01;98505.66;4993184;28;20263;-49
2022/07/20 02:01:57;;;;;;;10.23;4.95;;;;;;;23.33;40.93;98501.84;4985295;28;20206;-49
2022/07/20 02:04:24;;;;;;;6.33;4.50;;;;;;;23.24;40.96;98506.75;4987762;28;20289;-48
2022/07/20 02:07:10;;;;;;;8.20;4.93;;;;;;;23.18;41.79;98513.00;5000240;28;20226;-49
2022/07/20 02:09:37;;;;;;;8.23;4.88;;;;;;;23.11;41.89;98513.09;5006493;28;20211;-48
2022/07/20 02:12:06;;;;;;;8.83;4.83;;;;;;;23.02;41.58;98515.34;5005729;28;20204;-48
2022/07/20 02:14:33;;;;;;;8.07;4.70;;;;;;;22.99;42.03;98521.94;4999621;28;20291;-49
2022/07/20 02:17:00;;;;;;;10.73;5.07;;;;;;;22.93;42.31;98520.19;5000859;28;20229;-49
2022/07/20 02:19:27;;;;;;;8.03;4.40;;;;;;;22.87;42.57;98520.34;5009017;28;20203;-49
2022/07/20 02:21:54;;;;;;;9.13;4.50;;;;;;;22.78;42.67;98520.69;5007571;28;20208;-49
2022/07/20 02:24:21;;;;;;;7.97;4.70;;;;;;;22.74;43.11;98521.41;5001203;28;20217;-49
2022/07/20 02:26:48;;;;;;;5.93;4.63;;;;;;;22.66;42.90;98520.72;5006545;28;20236;-49
2022/07/20 02:29:17;;;;;;;9.13;4.53;;;;;;;22.59;42.92;98516.53;4975139;28;20189;-48
2022/07/20 02:31:44;;;;;;;7.40;4.47;;;;;;;22.53;42.87;98508.44;4998606;28;20212;-49
2022/07/20 02:34:11;;;;;;;7.53;4.53;;;;;;;22.49;42.86;98512.63;5002863;28;20286;-49
2022/07/20 02:36:38;;;;;;;8.87;4.90;;;;;;;22.46;42.72;98513.06;4996995;28;20204;-49
2022/07/20 02:39:05;;;;;;;8.27;5.50;;;;;;;22.53;43.00;98508.44;5003934;28;20209;-49
2022/07/20 02:41:32;;;;;;;9.20;4.23;;;;;;;22.56;43.72;98505.31;5000747;28;20294;-49
2022/07/20 02:43:59;;;;;;;8.17;5.17;;;;;;;22.52;44.09;98511.34;5002676;28;20248;-48
2022/07/20 02:46:28;;;;;;;6.07;4.27;;;;;;;22.44;43.91;98507.19;5006083;28;20200;-49
2022/07/20 02:48:55;;;;;;;9.90;5.20;;;;;;;22.34;44.18;98505.06;4998402;28;20276;-49
2022/07/20 02:51:22;;;;;;;7.13;4.97;;;;;;;22.29;44.15;98504.97;4999445;28;20197;-49
2022/07/20 02:53:49;;;;;;;6.80;4.60;;;;;;;22.28;43.83;98511.31;4996199;28;20216;-49
2022/07/20 02:56:16;;;;;;;10.57;4.60;;;;;;;22.29;44.28;98504.13;4973547;28;20666;-48
2022/07/20 02:58:43;;;;;;;7.80;4.40;;;;;;;22.24;44.48;98502.19;4989848;28;20200;-49
2022/07/20 03:01:10;;;;;;;6.77;4.10;;;;;;;22.19;43.97;98508.19;4995288;28;20184;-49
2022/07/20 03:03:38;;;;;;;10.40;5.17;;;;;;;22.27;44.12;98515.81;4990327;28;20876;-49
2022/07/20 03:06:05;;;;;;;7.93;4.80;;;;;;;22.19;44.91;98505.53;4995165;28;20189;-48
2022/07/20 03:08:32;;;;;;;7.10;4.50;;;;;;;22.14;45.26;98509.91;4973420;28;20207;-49
2022/07/20 03:10:59;;;;;;;9.27;5.20;;;;;;;22.08;45.72;98517.75;4992673;28;20192;-49
2022/07/20 03:13:26;;;;;;;6.60;4.30;;;;;;;22.04;45.67;98519.25;5000017;28;20975;-49
2022/07/20 03:15:53;;;;;;;9.93;4.73;;;;;;;21.96;46.15;98515.09;4998058;28;20196;-49
2022/07/20 03:18:21;;;;;;;8.10;4.70;;;;;;;21.91;45.89;98517.63;4974902;28;20220;-49
2022/07/20 03:20:49;;;;;;;8.23;4.90;;;;;;;21.87;45.80;98524.44;4997302;28;20671;-49
2022/07/20 03:23:16;;;;;;;7.63;4.73;;;;;;;21.84;45.46;98527.53;5002227;28;20238;-49
2022/07/20 03:25:43;;;;;;;13.97;5.07;;;;;;;21.81;46.32;98525.34;4974243;28;20211;-48
2022/07/20 03:28:10;;;;;;;11.20;5.10;;;;;;;21.76;46.35;98526.00;4989491;28;20190;-48
2022/07/20 03:30:37;;;;;;;11.67;4.77;;;;;;;21.66;46.09;98520.44;4992400;28;20210;-48
2022/07/20 03:33:03;;;;;;;5.27;4.60;;;;;;;21.65;45.94;98521.47;4994508;28;20227;-48
2022/07/20 03:35:31;;;;;;;8.20;4.90;;;;;;;21.62;46.36;98530.69;4986659;28;20222;-48
2022/07/20 03:37:58;;;;;;;6.67;4.50;;;;;;;21.57;46.57;98527.06;4998601;28;20211;-48
2022/07/20 03:40:25;;;;;;;9.10;4.53;;;;;;;21.62;46.40;98528.03;4997946;28;20215;-48
2022/07/20 03:42:52;;;;;;;6.57;4.60;;;;;;;21.58;46.04;98529.50;4988171;28;20223;-48
2022/07/20 03:45:19;;;;;;;7.63;4.83;;;;;;;21.53;46.44;98537.31;4992210;28;20207;-48
2022/07/20 03:47:47;;;;;;;7.80;4.60;;;;;;;21.50;46.10;98527.97;4998051;28;20263;-49
2022/07/20 03:50:14;;;;;;;7.30;4.63;;;;;;;21.50;47.02;98537.78;4981036;28;20205;-49
2022/07/20 03:52:40;;;;;;;7.57;4.17;;;;;;;21.46;46.77;98545.38;4995207;28;20229;-48
2022/07/20 03:55:09;;;;;;;5.73;4.57;;;;;;;21.45;46.89;98537.63;4990454;28;20206;-48
2022/07/20 03:57:36;;;;;;;7.87;4.53;;;;;;;21.43;46.53;98535.22;4987701;28;20208;-48
2022/07/20 04:00:02;;;;;;;7.17;4.23;;;;;;;21.45;47.15;98537.63;4988342;28;20191;-48
2022/07/20 04:02:31;;;;;;;8.73;4.60;;;;;;;21.42;47.22;98538.91;4990385;28;20299;-49
2022/07/20 04:04:58;;;;;;;6.00;4.63;;;;;;;21.42;46.74;98559.31;4990269;28;20221;-48
2022/07/20 04:07:26;;;;;;;7.37;4.77;;;;;;;21.43;47.42;98558.28;4998595;28;20197;-48
2022/07/20 04:09:52;;;;;;;10.00;4.97;;;;;;;21.43;47.63;98568.91;5003380;28;20208;-49
2022/07/20 04:12:23;;;;;;;8.07;4.83;;;;;;;21.46;47.41;98574.59;5002848;28;20288;-49
2022/07/20 04:14:51;;;;;;;9.23;4.30;;;;;;;21.48;46.92;98577.84;4996976;28;20788;-48
2022/07/20 04:17:18;;;;;;;9.17;3.93;;;;;;;21.50;47.58;98581.09;4995134;28;20674;-49
2022/07/20 04:19:45;;;;;;;7.80;4.60;;;;;;;21.50;47.63;98580.25;4989721;28;20203;-48
2022/07/20 04:22:12;;;;;;;8.10;4.80;;;;;;;21.56;47.18;98594.50;4992896;28;20191;-48
2022/07/20 04:24:40;;;;;;;7.37;4.63;;;;;;;21.72;47.16;98596.59;4999007;28;20777;-49
2022/07/20 04:27:07;;;;;;;11.23;4.97;;;;;;;21.77;47.10;98598.56;4978421;28;20266;-49
2022/07/20 04:29:35;;;;;;;9.47;5.23;;;;;;;21.82;47.43;98604.00;4992772;28;20550;-48
2022/07/20 04:32:03;;;;;;;11.33;5.00;;;;;;;21.91;47.93;98607.16;4989827;28;20213;-48
2022/07/20 04:34:30;;;;;;;6.77;5.00;;;;;;;22.06;47.35;98618.19;4989049;28;20260;-48
2022/07/20 04:36:57;;;;;;;12.03;5.53;;;;;;;22.08;46.51;98613.44;4987143;28;20260;-48
2022/07/20 04:39:24;;;;;;;9.40;5.43;;;;;;;22.11;46.71;98606.88;4987411;28;20194;-49
2022/07/20 04:41:51;;;;;;;7.30;4.53;;;;;;;22.17;46.89;98607.81;4987476;28;20594;-49
2022/07/20 04:44:18;;;;;;;9.47;5.27;;;;;;;22.20;47.72;98610.84;4987089;28;20653;-48
2022/07/20 04:46:47;;;;;;;9.80;5.07;;;;;;;22.23;48.49;98607.72;4993298;28;20599;-48
2022/07/20 04:49:14;;;;;;;10.07;5.50;;;;;;;22.27;47.61;98608.88;4992870;28;20228;-48
2022/07/20 04:51:43;;;;;;;12.10;5.60;;;;;;;22.25;48.73;98596.84;4994899;28;20276;-49
2022/07/20 04:54:10;;;;;;;8.37;4.67;;;;;;;22.29;48.21;98598.03;4993374;28;20217;-49
2022/07/20 04:56:37;;;;;;;5.30;4.70;;;;;;;22.36;47.74;98587.25;4990024;28;20203;-49
2022/07/20 04:59:05;;;;;;;5.87;4.93;;;;;;;22.30;49.75;98583.69;4993977;28;20287;-48
2022/07/20 05:01:32;;;;;;;5.87;4.43;;;;;;;22.36;49.12;98587.25;4999858;28;20284;-49
2022/07/20 05:04:01;;;;;;;8.63;5.07;;;;;;;22.37;49.55;98586.22;4994283;28;20209;-49
2022/07/20 05:06:28;;;;;;;8.43;4.83;;;;;;;22.39;49.77;98587.63;4999043;28;20689;-48
2022/07/20 05:08:56;;;;;;;7.90;4.77;;;;;;;22.40;50.05;98578.63;5003542;28;20275;-49
2022/07/20 05:11:42;;;;;;;7.13;4.67;;;;;;;22.44;49.13;98572.84;4991511;28;20230;-49
2022/07/20 05:14:10;;;;;;;6.77;5.00;;;;;;;22.54;47.85;98576.56;5002101;28;20206;-48
2022/07/20 05:16:37;;;;;;;8.43;4.80;;;;;;;22.62;47.87;98579.94;4998291;28;20259;-48
2022/07/20 05:19:06;;;;;;;11.47;4.57;;;;;;;22.67;47.59;98577.38;4994000;28;20204;-49
2022/07/20 05:21:33;;;;;;;10.07;4.93;;;;;;;22.83;48.42;98591.84;4999113;28;20201;-49
2022/07/20 05:24:00;;;;;;;6.80;5.10;;;;;;;22.78;48.51;98602.38;4989362;28;20614;-49
2022/07/20 05:26:27;;;;;;;11.10;4.93;;;;;;;22.84;48.40;98594.28;4994866;28;20204;-49
2022/07/20 05:28:54;;;;;;;9.93;4.63;;;;;;;22.97;46.83;98589.75;4987764;28;20205;-49
2022/07/20 05:31:21;;;;;;;7.77;4.90;;;;;;;23.10;46.19;98586.84;4990660;28;20257;-49
2022/07/20 05:33:48;;;;;;;11.10;4.80;;;;;;;23.25;46.74;98588.25;4992803;28;20635;-49
2022/07/20 05:36:16;;;;;;;18.60;5.17;;;;;;;23.34;46.74;98588.69;4993420;28;20192;-49
2022/07/20 05:39:01;;;;;;;26.43;4.93;;;;;;;23.40;46.24;98585.88;4998170;28;20284;-49
2022/07/20 05:41:28;;;;;;;26.47;5.83;;;;;;;23.48;46.00;98587.38;4991721;28;20658;-49
2022/07/20 05:43:55;;;;;;;27.03;6.37;;;;;;;23.60;46.10;98582.00;4993340;28;20218;-49
2022/07/20 05:46:22;;;;;;;19.87;4.93;;;;;;;23.59;46.75;98591.03;4997386;28;20202;-49
2022/07/20 05:48:49;;;;;;;16.63;4.70;;;;;;;23.64;46.68;98593.78;4995897;28;20203;-49
2022/07/20 05:51:16;;;;;;;12.83;5.10;;;;;;;23.69;46.40;98596.56;4994787;28;20193;-49
2022/07/20 05:53:43;;;;;;;8.33;4.20;;;;;;;23.75;45.82;98597.47;4993690;28;20661;-49
2022/07/20 05:56:10;;;;;;;7.93;4.20;;;;;;;23.77;46.54;98595.38;4994815;28;20204;-49
2022/07/20 05:58:37;;;;;;;7.93;4.07;;;;;;;23.89;46.80;98605.97;4998536;28;21033;-49
2022/07/20 06:01:04;;;;;;;12.83;4.63;;;;;;;24.06;45.96;98607.91;5003275;28;20207;-49
2022/07/20 06:03:32;;;;;;;10.07;4.57;;;;;;;24.22;45.72;98616.97;5005530;28;20708;-49
2022/07/20 06:05:59;;;;;;;13.82;6.55;;;;;;;24.38;46.86;98624.19;4998236;28;20201;-49
2022/07/20 06:08:26;;;;;;;7.63;5.72;;;;;;;24.57;46.68;98631.97;4995894;28;20202;-49
2022/07/20 06:10:53;;;;;;;10.67;5.40;;;;;;;24.70;46.43;98633.47;4997818;28;20193;-49
2022/07/20 06:13:20;;;;;;;13.93;5.60;;;;;;;24.76;46.76;98632.53;5005770;28;20217;-48
2022/07/20 06:15:48;;;;;;;11.35;5.82;;;;;;;24.90;45.85;98631.16;4998645;28;20194;-49
2022/07/20 06:18:18;;;;;;;9.15;5.90;;;;;;;25.11;45.80;98642.13;4997183;28;20256;-49
2022/07/20 06:20:45;;;;;;;7.30;4.90;;;;;;;25.33;45.62;98641.34;4988661;28;20197;-49
2022/07/20 06:23:13;;;;;;;8.45;4.70;;;;;;;25.51;45.03;98642.94;4976578;28;20693;-49
2022/07/20 06:25:41;;;;;;;9.98;5.82;;;;;;;25.71;45.50;98645.03;4997244;28;20218;-49
2022/07/20 06:28:08;;;;;;;10.27;5.38;;;;;;;25.91;45.49;98641.78;4996043;28;20190;-49
2022/07/20 06:30:35;;;;;;;9.77;5.35;;;;;;;26.12;45.08;98643.84;4992258;28;20200;-49
2022/07/20 06:33:02;;;;;;;8.77;4.90;;;;;;;26.28;45.07;98640.28;4998713;28;20638;-49
2022/07/20 06:35:29;;;;;;;11.27;5.20;;;;;;;26.51;43.43;98643.69;4997869;28;20202;-49
2022/07/20 06:37:56;;;;;;;13.25;5.85;;;;;;;26.65;43.74;98650.22;5002077;28;20647;-47
2022/07/20 06:40:23;;;;;;;8.18;4.88;;;;;;;26.88;43.50;98653.63;5001711;28;20675;-47
2022/07/20 06:42:51;;;;;;;10.77;6.38;;;;;;;27.00;41.73;98658.81;4996201;28;20298;-49
2022/07/20 06:45:19;;;;;;;9.25;6.25;;;;;;;27.03;41.81;98654.78;4996518;28;20236;-49
2022/07/20 06:47:47;;;;;;;26.42;5.97;;;;;;;27.09;43.97;98659.13;4998129;28;20191;-50
2022/07/20 06:50:14;;;;;;;10.23;5.80;;;;;;;27.23;43.58;98649.56;4976492;28;20679;-49
2022/07/20 06:52:41;;;;;;;13.27;5.28;;;;;;;27.26;43.46;98653.56;5001988;28;20234;-51
2022/07/20 06:55:09;;;;;;;9.48;5.13;;;;;;;27.47;41.98;98659.84;4998856;28;20207;-49
2022/07/20 06:57:37;;;;;;;7.35;4.95;;;;;;;27.66;41.39;98675.47;4996827;28;20623;-49
2022/07/20 07:00:07;;;;;;;7.55;5.00;;;;;;;27.73;38.80;98675.25;5004446;28;20732;-49
2022/07/20 07:02:35;;;;;;;7.22;5.30;;;;;;;27.66;38.46;98673.63;5006247;28;20219;-49
2022/07/20 07:05:01;;;;;;;12.43;5.47;;;;;;;27.49;38.58;98673.84;4991380;28;20312;-49
2022/07/20 07:07:29;;;;;;;9.15;6.13;;;;;;;27.63;36.75;98673.31;4995908;28;20349;-49
2022/07/20 07:09:56;;;;;;;7.93;5.20;;;;;;;27.77;36.64;98682.50;4983805;28;20270;-48
2022/07/20 07:12:23;;;;;;;8.82;5.38;;;;;;;27.84;35.70;98691.09;5001969;28;20577;-47
2022/07/20 07:14:50;;;;;;;16.30;6.07;;;;;;;27.81;35.65;98697.00;4995359;28;20196;-47
2022/07/20 07:17:19;;;;;;;12.63;6.97;;;;;;;27.61;37.20;98695.06;5000503;28;20267;-47
2022/07/20 07:19:45;;;;;;;8.10;6.55;;;;;;;27.54;37.31;98695.31;4999618;28;20720;-47
2022/07/20 07:22:13;;;;;;;12.40;7.05;;;;;;;27.72;37.53;98693.22;4995857;28;20198;-48
2022/07/20 07:24:59;;;;;;;11.05;5.93;;;;;;;27.83;37.96;98694.84;5001127;28;20290;-47
2022/07/20 07:27:26;;;;;;;8.27;6.32;;;;;;;27.85;37.26;98694.63;4996829;28;20537;-47
2022/07/20 07:29:52;;;;;;;11.38;6.38;;;;;;;27.89;37.12;98684.97;4993200;28;20626;-50
2022/07/20 07:32:21;;;;;;;8.43;6.18;;;;;;;27.96;36.42;98682.03;5002530;28;20274;-47
2022/07/20 07:34:48;;;;;;;8.40;5.90;;;;;;;27.99;36.65;98668.91;4993264;28;20669;-48
2022/07/20 07:37:15;;;;;;;12.23;5.90;;;;;;;28.29;36.20;98682.66;4997507;28;20207;-47
2022/07/20 07:39:42;;;;;;;9.35;6.03;;;;;;;28.27;35.75;98692.84;4995463;28;20200;-47
2022/07/20 07:42:09;;;;;;;12.60;6.32;;;;;;;28.32;36.41;98700.91;5002288;28;20191;-47
2022/07/20 07:44:36;;;;;;;9.25;6.30;;;;;;;28.35;36.02;98711.13;4993270;28;20213;-47
2022/07/20 07:47:03;;;;;;;11.13;6.78;;;;;;;28.36;36.98;98718.09;4994820;28;20299;-48
2022/07/20 07:49:32;;;;;;;12.05;6.75;;;;;;;28.46;37.58;98711.94;5000651;28;20277;-47
2022/07/20 07:52:00;;;;;;;9.57;5.72;;;;;;;28.62;37.09;98714.63;5002853;28;20218;-47
2022/07/20 07:54:26;;;;;;;8.68;6.05;;;;;;;28.66;37.14;98713.81;4998785;28;20192;-49
2022/07/20 07:56:53;;;;;;;13.68;6.18;;;;;;;28.85;37.42;98713.31;4998520;28;20220;-48
2022/07/20 07:59:20;;;;;;;9.93;6.35;;;;;;;28.58;37.70;98712.47;4997279;28;20205;-47
2022/07/20 08:01:46;;;;;;;9.65;6.00;;;;;;;28.66;37.47;98716.50;5000440;28;20196;-47
2022/07/20 08:04:14;;;;;;;10.23;5.72;;;;;;;28.85;37.05;98724.06;4999853;28;20210;-47
2022/07/20 08:06:41;;;;;;;17.17;6.88;;;;;;;28.71;37.87;98734.50;5001619;28;20258;-47
2022/07/20 08:09:09;;;;;;;11.68;6.32;;;;;;;28.91;37.33;98735.63;4996130;28;20185;-48
2022/07/20 08:11:36;;;;;;;14.88;6.32;;;;;;;29.02;37.99;98727.28;4994314;28;20197;-48
2022/07/20 08:14:03;;;;;;;13.07;6.78;;;;;;;28.95;37.41;98721.38;4999717;28;20757;-48
2022/07/20 08:16:31;;;;;;;13.38;6.05;;;;;;;29.11;37.70;98732.09;4998229;28;20660;-48
2022/07/20 08:18:59;;;;;;;6.95;5.82;;;;;;;29.27;37.96;98736.38;4982463;28;20207;-48
2022/07/20 08:21:26;;;;;;;13.75;6.43;;;;;;;29.33;38.09;98736.38;5000304;28;20196;-48
2022/07/20 08:23:54;;;;;;;10.27;6.25;;;;;;;29.38;37.89;98739.06;5001682;28;20224;-49
2022/07/20 08:26:21;;;;;;;12.93;6.70;;;;;;;29.51;37.72;98746.56;4995479;28;20238;-47
2022/07/20 08:28:48;;;;;;;9.75;6.15;;;;;;;29.50;38.32;98739.59;4980732;28;20205;-47
2022/07/20 08:31:15;;;;;;;9.35;6.32;;;;;;;29.63;38.04;98737.41;4993912;28;20196;-48
2022/07/20 08:33:42;;;;;;;11.48;7.13;;;;;;;29.75;38.37;98748.63;4995086;28;20225;-48
2022/07/20 08:36:10;;;;;;;11.07;6.25;;;;;;;29.91;38.22;98744.00;4992208;28;20212;-48
2022/07/20 08:38:56;;;;;;;8.70;6.30;;;;;;;29.95;37.48;98744.25;4989719;28;20215;-48
2022/07/20 08:41:25;;;;;;;13.45;6.53;;;;;;;29.99;37.64;98748.84;4974331;28;20209;-48
2022/07/20 08:43:52;;;;;;;11.15;6.68;;;;;;;30.00;38.05;98746.94;4970057;28;20229;-48
2022/07/20 08:46:19;;;;;;;11.20;6.85;;;;;;;30.22;38.27;98751.16;4999642;28;20315;-48
2022/07/20 08:48:47;;;;;;;10.90;7.00;;;;;;;30.24;38.88;98757.06;4974974;28;20462;-49
2022/07/20 08:51:14;;;;;;;12.27;7.55;;;;;;;30.32;38.94;98756.47;4987570;28;20223;-49
2022/07/20 08:53:40;;;;;;;13.43;7.88;;;;;;;30.37;38.20;98752.94;5018445;28;20219;-49
2022/07/20 08:56:08;;;;;;;13.50;8.95;;;;;;;30.42;37.82;98755.59;5022708;28;20195;-49
2022/07/20 08:58:35;;;;;;;10.38;8.02;;;;;;;30.44;38.85;98759.63;5031016;28;20207;-49
2022/07/20 09:01:01;;;;;;;13.43;7.38;;;;;;;30.49;38.46;98754.22;5014168;28;20196;-49
2022/07/20 09:03:28;;;;;;;9.80;7.40;;;;;;;30.54;38.07;98756.06;5014063;28;20208;-49
2022/07/20 09:06:06;;;;;;;12.93;7.82;;;;;;;30.69;38.28;98752.50;5015904;28;20224;-49
2022/07/20 09:08:33;;;;;;;18.40;8.02;;;;;;;30.71;37.66;98750.31;5036072;28;20193;-49
2022/07/20 09:11:01;;;;;;;10.20;7.90;;;;;;;30.61;37.76;98761.97;5036135;28;20191;-49
2022/07/20 09:13:31;;;;;;;14.88;7.30;;;;;;;30.27;37.40;98757.28;5035910;28;20243;-49
2022/07/20 09:15:58;;;;;;;9.27;6.65;;;;;;;30.31;36.36;98771.03;5036112;28;20185;-49
2022/07/20 09:18:26;;;;;;;13.73;6.85;;;;;;;30.07;35.59;98760.13;5018264;28;20199;-49
2022/07/20 09:20:55;;;;;;;8.77;6.55;;;;;;;30.10;35.16;98770.31;5036000;28;20607;-49
2022/07/20 09:23:23;;;;;;;13.07;7.32;;;;;;;30.28;34.25;98779.66;5035642;28;20208;-49
2022/07/20 09:25:58;;;;;;;9.38;6.45;;;;;;;30.37;34.61;98772.59;5035800;28;20208;-49
2022/07/20 09:28:37;;;;;;;12.82;8.25;;;;;;;30.15;35.20;98775.69;5035969;28;20183;-49
2022/07/20 09:31:09;;;;;;;13.05;7.88;;;;;;;30.29;34.44;98760.50;5017986;28;20199;-49
2022/07/20 09:33:36;;;;;;;12.85;7.20;;;;;;;30.19;34.37;98747.94;5017660;28;20211;-49
2022/07/20 09:36:05;;;;;;;9.20;7.03;;;;;;;30.19;34.46;98763.28;5035540;28;20263;-49
2022/07/20 09:38:34;;;;;;;11.23;7.50;;;;;;;30.38;34.41;98771.50;5035709;28;20191;-49
2022/07/20 09:41:03;;;;;;;13.15;7.15;;;;;;;30.40;32.88;98771.22;5035493;28;20600;-49
2022/07/20 09:43:32;;;;;;;9.75;7.22;;;;;;;30.73;32.88;98779.66;5035380;28;20208;-49
2022/07/20 09:46:13;;;;;;;11.60;9.73;;;;;;;30.79;34.91;98783.94;5017878;28;20684;-48
2022/07/20 09:48:41;;;;;;;22.05;13.50;;;;;;;30.77;37.05;98776.09;5035468;28;20318;-49
2022/07/20 09:51:20;;;;;;;22.75;15.18;;;;;;;30.80;37.11;98773.94;5035869;28;20184;-49
2022/07/20 09:53:48;;;;;;;18.65;12.98;;;;;;;30.67;37.61;98768.13;5017544;28;20504;-50
2022/07/20 09:56:16;;;;;;;20.48;11.98;;;;;;;30.66;37.16;98781.88;5035344;28;20179;-49
2022/07/20 09:58:44;;;;;;;19.05;12.35;;;;;;;30.95;36.56;98771.13;5017468;28;20203;-51
2022/07/20 10:01:16;;;;;;;21.02;13.10;;;;;;;31.15;35.92;98782.81;5035384;28;20192;-49
2022/07/20 10:03:44;;;;;;;17.20;11.65;;;;;;;31.28;36.38;98779.50;5017084;28;20222;-49
2022/07/20 10:06:11;;;;;;;21.90;13.45;;;;;;;31.27;36.09;98785.19;5035035;28;20684;-49
2022/07/20 10:08:38;;;;;;;22.25;13.80;;;;;;;31.18;36.47;98785.81;5034979;28;20184;-49
2022/07/20 10:11:05;;;;;;;21.30;14.43;;;;;;;31.26;36.81;98787.06;5034896;28;20189;-49
2022/07/20 10:13:33;;;;;;;20.90;14.98;;;;;;;31.21;37.79;98784.41;5016959;28;20215;-49
2022/07/20 10:16:04;;;;;;;18.67;14.88;;;;;;;31.61;37.90;98792.38;5017273;28;20188;-49
2022/07/20 10:18:32;;;;;;;24.10;16.17;;;;;;;31.62;38.06;98794.81;5016444;28;20192;-49
2022/07/20 10:20:59;;;;;;;23.80;15.70;;;;;;;31.75;38.01;98785.22;5017278;28;20199;-49
2022/07/20 10:23:31;;;;;;;28.60;16.73;;;;;;;31.66;37.16;98789.63;5034769;28;20200;-49
2022/07/20 10:26:01;;;;;;;26.05;15.98;;;;;;;31.66;37.69;98787.75;5017047;28;20219;-49
2022/07/20 10:28:38;;;;;;;27.15;16.75;;;;;;;31.95;37.43;98789.56;5017097;28;20637;-49
2022/07/20 10:31:08;;;;;;;26.60;17.00;;;;;;;31.49;37.97;98795.47;5034929;28;20389;-49
2022/07/20 10:33:39;;;;;;;23.88;15.50;;;;;;;31.76;37.52;98807.63;5034504;28;20212;-49
2022/07/20 10:38:56;;;;;;;21.90;16.35;;;;;;;31.18;38.93;98807.38;5016768;28;20206;-49
2022/07/20 10:41:36;;;;;;;26.98;16.33;;;;;;;31.30;38.49;98806.97;5016669;28;20652;-49
2022/07/20 10:44:32;;;;;;;29.90;17.38;;;;;;;30.73;39.82;98823.59;5034362;28;20719;-49
2022/07/20 10:46:59;;;;;;;23.45;16.90;;;;;;;30.77;39.12;98821.91;4957173;28;20405;-49
2022/07/20 10:50:04;;;;;;;21.55;16.90;;;;;;;31.15;39.02;98816.00;5019912;28;20330;-49
2022/07/20 10:52:34;;;;;;;21.35;17.95;;;;;;;31.58;38.40;98812.66;5034126;28;20208;-49
2022/07/20 10:55:02;;;;;;;30.63;19.02;;;;;;;32.21;37.93;98824.34;5034303;28;20191;-49
2022/07/20 10:57:28;;;;;;;28.30;16.83;;;;;;;32.24;37.41;98825.69;5034183;28;20184;-49
2022/07/20 11:00:13;;;;;;;26.55;18.23;;;;;;;32.57;37.92;98822.31;5034319;28;20661;-50
2022/07/20 11:02:40;;;;;;;23.10;18.23;;;;;;;32.47;37.67;98820.53;5015962;28;20218;-49
2022/07/20 11:05:19;;;;;;;21.67;17.95;;;;;;;32.86;37.10;98832.19;5016023;28;20211;-49
2022/07/20 11:07:46;;;;;;;26.42;17.85;;;;;;;32.61;36.83;98816.00;5016353;28;20242;-49
2022/07/20 11:10:22;;;;;;;29.45;18.45;;;;;;;32.61;37.19;98815.22;5016107;28;20218;-49
2022/07/20 11:12:57;;;;;;;30.08;19.15;;;;;;;32.80;36.54;98815.19;5016095;28;20227;-49
2022/07/20 11:15:25;;;;;;;29.17;18.27;;;;;;;32.48;36.71;98814.03;5016444;28;20194;-49
2022/07/20 11:17:55;;;;;;;26.02;18.10;;;;;;;32.17;37.30;98809.81;5015917;28;20258;-49
2022/07/20 11:20:23;;;;;;;26.95;17.42;;;;;;;32.14;37.72;98801.50;5033859;28;20596;-49
2022/07/20 11:22:51;;;;;;;22.98;17.17;;;;;;;32.25;37.23;98798.38;5015588;28;20219;-48
2022/07/20 11:25:17;;;;;;;22.65;16.83;;;;;;;32.23;37.50;98797.06;5016048;28;20211;-49
2022/07/20 11:27:59;;;;;;;21.38;15.90;;;;;;;32.15;36.75;98812.00;5015792;28;20664;-49
2022/07/20 11:30:33;;;;;;;20.75;14.30;;;;;;;32.28;35.00;98804.28;5033549;28;20267;-49
2022/07/20 11:33:00;;;;;;;18.63;14.52;;;;;;;32.28;35.36;98798.88;5015372;28;20739;-49
2022/07/20 11:35:28;;;;;;;21.38;12.85;;;;;;;32.37;33.97;98802.56;5033488;28;20195;-49
2022/07/20 11:37:55;;;;;;;20.48;13.50;;;;;;;32.74;33.44;98806.38;5033483;28;20191;-49
2022/07/20 11:40:22;;;;;;;18.85;13.73;;;;;;;32.88;33.03;98800.22;5033257;28;20568;-49